sensor_id;sensor_type;location;lat;lon;timestamp;pressure;altitude;pressure_sealevel;temperature;humidity
29383;BME280;16365;51.598;7.668;2023-03-21T00:00:39;101048.28;;;16.60;44.05
29383;BME280;16365;51.598;7.668;2023-03-21T00:03:06;101041.50;;;16.61;44.03
29383;BME280;16365;51.598;7.668;2023-03-21T00:05:33;101033.91;;;16.61;43.98
29383;BME280;16365;51.598;7.668;2023-03-21T00:07:59;101038.34;;;16.62;43.71
29383;BME280;16365;51.598;7.668;2023-03-21T00:10:28;101030.41;;;16.64;43.73
29383;BME280;16365;51.598;7.668;2023-03-21T00:13:08;101024.06;;;16.67;43.69
29383;BME280;16365;51.598;7.668;2023-03-21T00:15:40;101031.31;;;16.68;44.09
29383;BME280;16365;51.598;7.668;2023-03-21T00:18:36;101024.66;;;16.73;44.06
29383;BME280;16365;51.598;7.668;2023-03-21T00:21:09;101019.13;;;16.77;43.61
29383;BME280;16365;51.598;7.668;2023-03-21T00:24:00;101022.31;;;16.75;43.34
29383;BME280;16365;51.598;7.668;2023-03-21T00:26:27;101011.81;;;16.72;43.43
29383;BME280;16365;51.598;7.668;2023-03-21T00:28:53;101012.97;;;16.71;43.68
29383;BME280;16365;51.598;7.668;2023-03-21T00:31:20;101012.97;;;16.71;43.62
29383;BME280;16365;51.598;7.668;2023-03-21T00:33:46;101016.94;;;16.70;43.44
29383;BME280;16365;51.598;7.668;2023-03-21T00:36:14;101010.53;;;16.69;43.71
29383;BME280;16365;51.598;7.668;2023-03-21T00:38:41;101004.13;;;16.69;43.78
29383;BME280;16365;51.598;7.668;2023-03-21T00:41:11;101003.31;;;16.68;43.69
29383;BME280;16365;51.598;7.668;2023-03-21T00:43:56;101004.94;;;16.69;43.43
29383;BME280;16365;51.598;7.668;2023-03-21T00:46:23;100992.56;;;16.70;43.89
29383;BME280;16365;51.598;7.668;2023-03-21T00:48:55;100995.00;;;16.72;43.92
29383;BME280;16365;51.598;7.668;2023-03-21T00:51:22;100990.56;;;16.71;43.65
29383;BME280;16365;51.598;7.668;2023-03-21T00:53:53;100999.09;;;16.75;43.92
29383;BME280;16365;51.598;7.668;2023-03-21T00:56:20;100985.91;;;16.75;43.81
29383;BME280;16365;51.598;7.668;2023-03-21T00:58:47;100984.34;;;16.78;43.91
29383;BME280;16365;51.598;7.668;2023-03-21T01:01:13;100983.63;;;16.81;43.91
29383;BME280;16365;51.598;7.668;2023-03-21T01:03:40;100979.66;;;16.82;43.50
29383;BME280;16365;51.598;7.668;2023-03-21T01:06:18;100977.31;;;16.84;43.83
29383;BME280;16365;51.598;7.668;2023-03-21T01:08:46;100977.75;;;16.86;43.62
29383;BME280;16365;51.598;7.668;2023-03-21T01:11:21;100969.34;;;16.86;43.29
29383;BME280;16365;51.598;7.668;2023-03-21T01:13:48;100969.81;;;16.88;43.34
29383;BME280;16365;51.598;7.668;2023-03-21T01:16:25;100968.63;;;16.89;43.65
29383;BME280;16365;51.598;7.668;2023-03-21T01:18:51;100966.63;;;16.89;43.40
29383;BME280;16365;51.598;7.668;2023-03-21T01:21:18;100968.25;;;16.90;43.41
29383;BME280;16365;51.598;7.668;2023-03-21T01:23:45;100962.66;;;16.90;43.66
29383;BME280;16365;51.598;7.668;2023-03-21T01:26:12;100963.84;;;16.89;43.33
29383;BME280;16365;51.598;7.668;2023-03-21T01:28:40;100965.00;;;16.88;43.85
29383;BME280;16365;51.598;7.668;2023-03-21T01:31:08;100963.03;;;16.89;43.61
29383;BME280;16365;51.598;7.668;2023-03-21T01:33:36;100959.03;;;16.90;43.72
29383;BME280;16365;51.598;7.668;2023-03-21T01:36:03;100966.63;;;16.89;43.60
29383;BME280;16365;51.598;7.668;2023-03-21T01:38:38;100956.25;;;16.90;43.64
29383;BME280;16365;51.598;7.668;2023-03-21T01:41:04;100961.84;;;16.90;43.45
29383;BME280;16365;51.598;7.668;2023-03-21T01:43:44;100951.06;;;16.92;43.46
29383;BME280;16365;51.598;7.668;2023-03-21T01:46:20;100953.44;;;16.90;43.33
29383;BME280;16365;51.598;7.668;2023-03-21T01:48:52;100946.66;;;16.91;43.41
29383;BME280;16365;51.598;7.668;2023-03-21T01:51:20;100951.06;;;16.92;43.67
29383;BME280;16365;51.598;7.668;2023-03-21T01:53:48;100942.66;;;16.92;43.44
29383;BME280;16365;51.598;7.668;2023-03-21T01:56:28;100948.22;;;16.88;43.65
29383;BME280;16365;51.598;7.668;2023-03-21T01:58:59;100946.66;;;16.91;43.49
29383;BME280;16365;51.598;7.668;2023-03-21T02:01:29;100947.47;;;16.91;43.31
29383;BME280;16365;51.598;7.668;2023-03-21T02:03:57;100940.72;;;16.92;43.50
29383;BME280;16365;51.598;7.668;2023-03-21T02:06:32;100946.31;;;16.92;43.29
29383;BME280;16365;51.598;7.668;2023-03-21T02:09:04;100935.09;;;16.92;43.44
29383;BME280;16365;51.598;7.668;2023-03-21T02:11:34;100938.34;;;16.94;43.53
29383;BME280;16365;51.598;7.668;2023-03-21T02:14:02;100934.00;;;16.97;43.43
29383;BME280;16365;51.598;7.668;2023-03-21T02:19:59;100928.75;;;16.95;43.43
29383;BME280;16365;51.598;7.668;2023-03-21T02:22:59;100917.56;;;16.95;43.32
29383;BME280;16365;51.598;7.668;2023-03-21T02:26:22;100925.59;;;16.97;43.36
29383;BME280;16365;51.598;7.668;2023-03-21T02:28:39;100923.16;;;16.95;42.75
29383;BME280;16365;51.598;7.668;2023-03-21T02:31:23;100913.50;;;16.93;43.17
29383;BME280;16365;51.598;7.668;2023-03-21T02:37:09;100914.22;;;16.90;43.03
29383;BME280;16365;51.598;7.668;2023-03-21T02:39:52;100909.44;;;16.90;43.14
29383;BME280;16365;51.598;7.668;2023-03-21T02:42:34;100915.03;;;16.90;43.04
29383;BME280;16365;51.598;7.668;2023-03-21T02:45:18;100909.06;;;16.92;43.19
29383;BME280;16365;51.598;7.668;2023-03-21T02:47:49;100905.44;;;16.91;43.22
29383;BME280;16365;51.598;7.668;2023-03-21T02:50:21;100915.13;;;16.94;43.36
29383;BME280;16365;51.598;7.668;2023-03-21T02:52:51;100908.72;;;16.93;43.26
29383;BME280;16365;51.598;7.668;2023-03-21T02:55:23;100915.94;;;16.94;43.48
29383;BME280;16365;51.598;7.668;2023-03-21T02:57:51;100909.16;;;16.95;43.09
29383;BME280;16365;51.598;7.668;2023-03-21T03:00:22;100915.56;;;16.96;43.43
29383;BME280;16365;51.598;7.668;2023-03-21T03:02:50;100912.75;;;16.96;43.07
29383;BME280;16365;51.598;7.668;2023-03-21T03:05:36;100906.34;;;16.95;43.05
29383;BME280;16365;51.598;7.668;2023-03-21T03:08:22;100912.41;;;16.98;43.26
29383;BME280;16365;51.598;7.668;2023-03-21T03:17:02;100900.41;;;16.97;42.79
29383;BME280;16365;51.598;7.668;2023-03-21T03:19:35;100904.34;;;16.96;42.94
29383;BME280;16365;51.598;7.668;2023-03-21T03:22:22;100895.16;;;16.95;43.21
29383;BME280;16365;51.598;7.668;2023-03-21T03:25:01;100900.75;;;16.95;43.26
29383;BME280;16365;51.598;7.668;2023-03-21T03:27:49;100894.81;;;16.97;43.05
29383;BME280;16365;51.598;7.668;2023-03-21T03:30:19;100900.41;;;16.97;43.30
29383;BME280;16365;51.598;7.668;2023-03-21T03:32:53;100896.75;;;16.96;43.76
29383;BME280;16365;51.598;7.668;2023-03-21T03:35:23;100896.41;;;16.98;43.33
29383;BME280;16365;51.598;7.668;2023-03-21T03:37:55;100890.44;;;17.00;43.36
29383;BME280;16365;51.598;7.668;2023-03-21T03:40:27;100891.31;;;17.04;43.37
29383;BME280;16365;51.598;7.668;2023-03-21T03:43:04;100894.50;;;17.02;43.28
29383;BME280;16365;51.598;7.668;2023-03-21T03:45:37;100893.66;;;17.02;43.11
29383;BME280;16365;51.598;7.668;2023-03-21T03:50:45;100888.72;;;16.95;43.50
29383;BME280;16365;51.598;7.668;2023-03-21T03:53:37;100887.03;;;16.90;43.47
29383;BME280;16365;51.598;7.668;2023-03-21T03:56:07;100878.63;;;16.90;43.61
29383;BME280;16365;51.598;7.668;2023-03-21T03:58:35;100884.22;;;16.90;43.35
29383;BME280;16365;51.598;7.668;2023-03-21T04:01:11;100877.00;;;16.89;43.69
29383;BME280;16365;51.598;7.668;2023-03-21T04:03:40;100879.00;;;16.89;43.78
29383;BME280;16365;51.598;7.668;2023-03-21T04:06:17;100883.00;;;16.88;43.47
29383;BME280;16365;51.598;7.668;2023-03-21T04:08:44;100871.31;;;16.86;43.57
29383;BME280;16365;51.598;7.668;2023-03-21T04:11:13;100871.63;;;16.81;43.89
29383;BME280;16365;51.598;7.668;2023-03-21T04:13:41;100876.78;;;16.79;43.71
29383;BME280;16365;51.598;7.668;2023-03-21T04:16:09;100863.13;;;16.77;43.76
29383;BME280;16365;51.598;7.668;2023-03-21T04:18:36;100863.50;;;16.76;43.95
29383;BME280;16365;51.598;7.668;2023-03-21T04:21:11;100852.22;;;16.72;44.53
29383;BME280;16365;51.598;7.668;2023-03-21T04:23:39;100852.22;;;16.72;44.02
29383;BME280;16365;51.598;7.668;2023-03-21T04:26:06;100852.22;;;16.72;44.18
29383;BME280;16365;51.598;7.668;2023-03-21T04:28:33;100853.38;;;16.71;44.29
29383;BME280;16365;51.598;7.668;2023-03-21T04:31:04;100857.72;;;16.68;44.28
29383;BME280;16365;51.598;7.668;2023-03-21T04:33:47;100853.75;;;16.69;44.34
29383;BME280;16365;51.598;7.668;2023-03-21T04:36:15;100854.09;;;16.68;44.06
29383;BME280;16365;51.598;7.668;2023-03-21T04:38:53;100847.69;;;16.67;44.18
29383;BME280;16365;51.598;7.668;2023-03-21T04:41:22;100847.69;;;16.67;44.40
29383;BME280;16365;51.598;7.668;2023-03-21T04:43:49;100844.09;;;16.67;44.30
29383;BME280;16365;51.598;7.668;2023-03-21T04:46:17;100849.69;;;16.67;44.00
29383;BME280;16365;51.598;7.668;2023-03-21T04:48:44;100844.53;;;16.69;44.23
29383;BME280;16365;51.598;7.668;2023-03-21T04:51:10;100845.34;;;16.69;44.55
29383;BME280;16365;51.598;7.668;2023-03-21T04:53:37;100850.94;;;16.69;44.13
29383;BME280;16365;51.598;7.668;2023-03-21T04:56:05;100843.34;;;16.70;44.01
29383;BME280;16365;51.598;7.668;2023-03-21T04:58:31;100836.56;;;16.71;44.49
29383;BME280;16365;51.598;7.668;2023-03-21T05:00:58;100841.38;;;16.70;44.48
29383;BME280;16365;51.598;7.668;2023-03-21T05:03:24;100825.38;;;16.71;44.12
29383;BME280;16365;51.598;7.668;2023-03-21T05:05:53;100833.44;;;16.73;44.53
29383;BME280;16365;51.598;7.668;2023-03-21T05:08:20;100831.53;;;16.77;44.18
29383;BME280;16365;51.598;7.668;2023-03-21T05:10:46;100826.72;;;16.77;44.04
29383;BME280;16365;51.598;7.668;2023-03-21T05:13:13;100841.91;;;16.76;44.20
29383;BME280;16365;51.598;7.668;2023-03-21T05:15:39;100827.47;;;16.74;44.14
29383;BME280;16365;51.598;7.668;2023-03-21T05:18:05;100827.47;;;16.74;44.16
29383;BME280;16365;51.598;7.668;2023-03-21T05:20:39;100823.41;;;16.72;44.41
29383;BME280;16365;51.598;7.668;2023-03-21T05:23:09;100825.75;;;16.69;44.22
29383;BME280;16365;51.598;7.668;2023-03-21T05:25:38;100827.28;;;16.67;44.25
29383;BME280;16365;51.598;7.668;2023-03-21T05:28:06;100830.47;;;16.65;44.35
29383;BME280;16365;51.598;7.668;2023-03-21T05:30:33;100824.78;;;16.62;44.83
29383;BME280;16365;51.598;7.668;2023-03-21T05:32:59;100828.75;;;16.61;44.67
29383;BME280;16365;51.598;7.668;2023-03-21T05:35:26;100822.72;;;16.59;44.60
29383;BME280;16365;51.598;7.668;2023-03-21T05:37:52;100828.66;;;16.57;44.74
29383;BME280;16365;51.598;7.668;2023-03-21T05:40:19;100824.25;;;16.56;44.54
29383;BME280;16365;51.598;7.668;2023-03-21T05:42:46;100828.31;;;16.59;44.42
29383;BME280;16365;51.598;7.668;2023-03-21T05:45:13;100828.31;;;16.59;44.71
29383;BME280;16365;51.598;7.668;2023-03-21T05:47:40;100825.97;;;16.61;44.60
29383;BME280;16365;51.598;7.668;2023-03-21T05:50:08;100830.38;;;16.62;44.75
29383;BME280;16365;51.598;7.668;2023-03-21T05:52:34;100836.88;;;16.66;44.68
29383;BME280;16365;51.598;7.668;2023-03-21T05:55:01;100843.28;;;16.66;44.93
29383;BME280;16365;51.598;7.668;2023-03-21T05:57:28;100845.69;;;16.68;44.63
29383;BME280;16365;51.598;7.668;2023-03-21T05:59:55;100840.56;;;16.70;44.68
29383;BME280;16365;51.598;7.668;2023-03-21T06:02:21;100844.63;;;16.73;44.39
29383;BME280;16365;51.598;7.668;2023-03-21T06:04:48;100845.91;;;16.75;44.46
29383;BME280;16365;51.598;7.668;2023-03-21T06:07:14;100847.53;;;16.76;44.68
29383;BME280;16365;51.598;7.668;2023-03-21T06:09:42;100849.13;;;16.77;44.38
29383;BME280;16365;51.598;7.668;2023-03-21T06:12:09;100840.72;;;16.77;44.35
29383;BME280;16365;51.598;7.668;2023-03-21T06:14:36;100837.59;;;16.79;44.47
29383;BME280;16365;51.598;7.668;2023-03-21T06:17:03;100838.41;;;16.79;44.38
29383;BME280;16365;51.598;7.668;2023-03-21T06:19:29;100843.19;;;16.79;44.79
29383;BME280;16365;51.598;7.668;2023-03-21T06:21:57;100855.53;;;16.78;44.83
29383;BME280;16365;51.598;7.668;2023-03-21T06:24:24;100848.78;;;16.79;44.63
29383;BME280;16365;51.598;7.668;2023-03-21T06:26:52;100844.00;;;16.79;44.35
29383;BME280;16365;51.598;7.668;2023-03-21T06:29:18;100839.19;;;16.80;44.94
29383;BME280;16365;51.598;7.668;2023-03-21T06:31:45;100843.19;;;16.79;44.73
29383;BME280;16365;51.598;7.668;2023-03-21T06:34:12;100848.78;;;16.79;44.87
29383;BME280;16365;51.598;7.668;2023-03-21T06:36:38;100845.97;;;16.79;44.66
29383;BME280;16365;51.598;7.668;2023-03-21T06:39:05;100836.78;;;16.78;45.13
29383;BME280;16365;51.598;7.668;2023-03-21T06:41:33;100842.81;;;16.80;44.81
29383;BME280;16365;51.598;7.668;2023-03-21T06:44:00;100846.88;;;16.83;44.78
29383;BME280;16365;51.598;7.668;2023-03-21T06:46:26;100837.63;;;16.82;44.96
29383;BME280;16365;51.598;7.668;2023-03-21T06:48:53;100837.59;;;16.79;45.10
29383;BME280;16365;51.598;7.668;2023-03-21T06:51:20;100844.34;;;16.78;45.41
29383;BME280;16365;51.598;7.668;2023-03-21T06:53:46;100844.34;;;16.78;45.27
29383;BME280;16365;51.598;7.668;2023-03-21T06:56:13;100833.13;;;16.78;45.60
29383;BME280;16365;51.598;7.668;2023-03-21T06:58:40;100840.72;;;16.77;45.47
29383;BME280;16365;51.598;7.668;2023-03-21T07:01:06;100839.94;;;16.77;45.91
29383;BME280;16365;51.598;7.668;2023-03-21T07:03:33;100835.88;;;16.74;46.04
29383;BME280;16365;51.598;7.668;2023-03-21T07:06:08;100841.38;;;16.70;46.69
29383;BME280;16365;51.598;7.668;2023-03-21T07:08:39;100832.16;;;16.70;45.77
29383;BME280;16365;51.598;7.668;2023-03-21T07:11:07;100831.69;;;16.68;46.22
29383;BME280;16365;51.598;7.668;2023-03-21T07:13:33;100846.88;;;16.67;45.89
29383;BME280;16365;51.598;7.668;2023-03-21T07:16:00;100850.06;;;16.65;46.31
29383;BME280;16365;51.598;7.668;2023-03-21T07:18:27;100848.06;;;16.66;46.35
29383;BME280;16365;51.598;7.668;2023-03-21T07:20:53;100852.84;;;16.65;46.54
29383;BME280;16365;51.598;7.668;2023-03-21T07:23:22;100857.66;;;16.65;46.80
29383;BME280;16365;51.598;7.668;2023-03-21T07:25:51;100850.88;;;16.66;46.50
29383;BME280;16365;51.598;7.668;2023-03-21T07:28:19;100860.88;;;16.67;46.98
29383;BME280;16365;51.598;7.668;2023-03-21T07:30:54;100853.66;;;16.66;47.53
29383;BME280;16365;51.598;7.668;2023-03-21T07:33:22;100861.34;;;16.69;46.77
29383;BME280;16365;51.598;7.668;2023-03-21T07:35:50;100850.94;;;16.69;46.73
29383;BME280;16365;51.598;7.668;2023-03-21T07:38:17;100850.94;;;16.69;47.03
29383;BME280;16365;51.598;7.668;2023-03-21T07:40:45;100848.97;;;16.70;47.02
29383;BME280;16365;51.598;7.668;2023-03-21T07:43:13;100852.56;;;16.70;46.91
29383;BME280;16365;51.598;7.668;2023-03-21T07:45:40;100852.22;;;16.72;46.99
29383;BME280;16365;51.598;7.668;2023-03-21T07:48:09;100853.38;;;16.71;47.02
29383;BME280;16365;51.598;7.668;2023-03-21T07:50:35;100844.63;;;16.73;47.12
29383;BME280;16365;51.598;7.668;2023-03-21T07:53:02;100842.66;;;16.73;47.06
29383;BME280;16365;51.598;7.668;2023-03-21T07:55:28;100853.50;;;16.75;47.31
29383;BME280;16365;51.598;7.668;2023-03-21T07:57:55;100855.09;;;16.76;47.06
29383;BME280;16365;51.598;7.668;2023-03-21T08:00:24;100847.53;;;16.76;47.17
29383;BME280;16365;51.598;7.668;2023-03-21T08:02:52;100854.72;;;16.77;47.64
29383;BME280;16365;51.598;7.668;2023-03-21T08:05:27;100856.38;;;16.78;47.78
29383;BME280;16365;51.598;7.668;2023-03-21T08:07:54;100859.63;;;16.80;47.15
29383;BME280;16365;51.598;7.668;2023-03-21T08:10:20;100854.44;;;16.82;47.29
29383;BME280;16365;51.598;7.668;2023-03-21T08:12:47;100855.63;;;16.81;46.93
29383;BME280;16365;51.598;7.668;2023-03-21T08:15:14;100857.25;;;16.82;47.46
29383;BME280;16365;51.598;7.668;2023-03-21T08:17:41;100853.63;;;16.82;47.59
29383;BME280;16365;51.598;7.668;2023-03-21T08:20:13;100860.41;;;16.81;47.61
29383;BME280;16365;51.598;7.668;2023-03-21T08:22:41;100852.81;;;16.81;47.29
29383;BME280;16365;51.598;7.668;2023-03-21T08:25:10;100863.22;;;16.81;47.87
29383;BME280;16365;51.598;7.668;2023-03-21T08:27:41;100857.25;;;16.82;47.80
29383;BME280;16365;51.598;7.668;2023-03-21T08:30:09;100860.03;;;16.82;47.61
29383;BME280;16365;51.598;7.668;2023-03-21T08:32:38;100859.69;;;16.84;47.92
29383;BME280;16365;51.598;7.668;2023-03-21T08:35:06;100861.31;;;16.85;48.04
29383;BME280;16365;51.598;7.668;2023-03-21T08:37:36;100858.94;;;16.87;48.03
29383;BME280;16365;51.598;7.668;2023-03-21T08:40:08;100857.31;;;16.86;48.52
29383;BME280;16365;51.598;7.668;2023-03-21T08:42:37;100856.59;;;16.89;47.93
29383;BME280;16365;51.598;7.668;2023-03-21T08:45:05;100854.63;;;16.89;47.52
29383;BME280;16365;51.598;7.668;2023-03-21T08:47:32;100855.78;;;16.88;47.49
29383;BME280;16365;51.598;7.668;2023-03-21T08:49:59;100849.38;;;16.88;47.60
29383;BME280;16365;51.598;7.668;2023-03-21T08:52:26;100845.31;;;16.85;47.83
29383;BME280;16365;51.598;7.668;2023-03-21T08:54:53;100845.31;;;16.85;48.06
29383;BME280;16365;51.598;7.668;2023-03-21T08:57:20;100853.34;;;16.87;48.17
29383;BME280;16365;51.598;7.668;2023-03-21T08:59:46;100848.56;;;16.87;48.47
29383;BME280;16365;51.598;7.668;2023-03-21T09:02:15;100837.00;;;16.89;48.43
29383;BME280;16365;51.598;7.668;2023-03-21T09:04:42;100841.50;;;16.93;49.13
29383;BME280;16365;51.598;7.668;2023-03-21T09:07:10;100839.22;;;16.99;47.88
29383;BME280;16365;51.598;7.668;2023-03-21T09:09:38;100841.63;;;17.01;48.21
29383;BME280;16365;51.598;7.668;2023-03-21T09:12:04;100838.47;;;17.02;47.98
29383;BME280;16365;51.598;7.668;2023-03-21T09:14:31;100832.50;;;17.04;48.54
29383;BME280;16365;51.598;7.668;2023-03-21T09:16:58;100832.59;;;17.07;48.60
29383;BME280;16365;51.598;7.668;2023-03-21T09:19:25;100834.63;;;17.10;48.38
29383;BME280;16365;51.598;7.668;2023-03-21T09:21:53;100830.72;;;17.15;48.40
29383;BME280;16365;51.598;7.668;2023-03-21T09:24:20;100825.19;;;17.18;48.42
29383;BME280;16365;51.598;7.668;2023-03-21T09:26:48;100823.28;;;17.23;48.42
29383;BME280;16365;51.598;7.668;2023-03-21T09:29:17;100833.38;;;17.27;48.77
29383;BME280;16365;51.598;7.668;2023-03-21T09:31:48;100823.41;;;17.30;48.52
29383;BME280;16365;51.598;7.668;2023-03-21T09:34:15;100832.31;;;17.35;48.74
29383;BME280;16365;51.598;7.668;2023-03-21T09:36:41;100828.78;;;17.38;48.59
29383;BME280;16365;51.598;7.668;2023-03-21T09:39:10;100835.25;;;17.42;48.34
29383;BME280;16365;51.598;7.668;2023-03-21T09:47:17;100837.75;;;17.47;48.83
29383;BME280;16365;51.598;7.668;2023-03-21T09:49:48;100840.25;;;17.53;48.43
29383;BME280;16365;51.598;7.668;2023-03-21T09:52:41;100841.00;;;17.50;48.80
29383;BME280;16365;51.598;7.668;2023-03-21T09:55:19;100826.97;;;17.50;48.65
29383;BME280;16365;51.598;7.668;2023-03-21T09:58:39;100836.19;;;17.50;48.17
29383;BME280;16365;51.598;7.668;2023-03-21T10:00:43;100828.97;;;17.49;48.19
29383;BME280;16365;51.598;7.668;2023-03-21T10:03:22;100820.94;;;17.47;48.67
29383;BME280;16365;51.598;7.668;2023-03-21T10:05:54;100830.53;;;17.46;48.39
29383;BME280;16365;51.598;7.668;2023-03-21T10:08:29;100820.94;;;17.47;48.77
29383;BME280;16365;51.598;7.668;2023-03-21T10:11:02;100826.94;;;17.46;48.94
29383;BME280;16365;51.598;7.668;2023-03-21T10:13:39;100824.13;;;17.46;48.90
29383;BME280;16365;51.598;7.668;2023-03-21T10:16:14;100831.34;;;17.47;49.14
29383;BME280;16365;51.598;7.668;2023-03-21T10:18:42;100826.16;;;17.49;49.03
29383;BME280;16365;51.598;7.668;2023-03-21T10:21:20;100831.34;;;17.47;49.23
29383;BME280;16365;51.598;7.668;2023-03-21T10:24:12;100823.75;;;17.47;48.80
29383;BME280;16365;51.598;7.668;2023-03-21T10:26:40;100818.13;;;17.47;48.34
29383;BME280;16365;51.598;7.668;2023-03-21T10:29:09;100822.94;;;17.47;49.10
29383;BME280;16365;51.598;7.668;2023-03-21T10:31:36;100823.81;;;17.51;48.45
29383;BME280;16365;51.598;7.668;2023-03-21T10:34:11;100829.34;;;17.47;48.88
29383;BME280;16365;51.598;7.668;2023-03-21T10:36:40;100819.75;;;17.48;48.71
29383;BME280;16365;51.598;7.668;2023-03-21T10:41:43;100817.72;;;17.45;48.52
29383;BME280;16365;51.598;7.668;2023-03-21T10:44:12;100823.66;;;17.44;49.16
29383;BME280;16365;51.598;7.668;2023-03-21T10:46:54;100812.03;;;17.42;49.96
29383;BME280;16365;51.598;7.668;2023-03-21T10:49:22;100808.47;;;17.45;48.99
29383;BME280;16365;51.598;7.668;2023-03-21T10:51:51;100804.50;;;17.46;49.30
29383;BME280;16365;51.598;7.668;2023-03-21T10:54:20;100807.72;;;17.48;49.05
29383;BME280;16365;51.598;7.668;2023-03-21T10:56:54;100801.75;;;17.50;49.65
29383;BME280;16365;51.598;7.668;2023-03-21T10:59:23;100794.66;;;17.56;49.32
29383;BME280;16365;51.598;7.668;2023-03-21T11:01:51;100791.88;;;17.56;49.31
29383;BME280;16365;51.598;7.668;2023-03-21T11:04:24;100795.09;;;17.58;49.85
29383;BME280;16365;51.598;7.668;2023-03-21T11:06:56;100789.09;;;17.59;49.25
29383;BME280;16365;51.598;7.668;2023-03-21T11:09:41;100784.31;;;17.60;49.44
29383;BME280;16365;51.598;7.668;2023-03-21T11:12:14;100783.13;;;17.61;49.31
29383;BME280;16365;51.598;7.668;2023-03-21T11:14:48;100777.16;;;17.62;49.77
29383;BME280;16365;51.598;7.668;2023-03-21T11:19:47;100772.41;;;17.66;49.18
29383;BME280;16365;51.598;7.668;2023-03-21T11:22:15;100766.03;;;17.69;49.13
29383;BME280;16365;51.598;7.668;2023-03-21T11:24:49;100764.88;;;17.70;49.25
29383;BME280;16365;51.598;7.668;2023-03-21T11:27:17;100765.78;;;17.75;49.07
29383;BME280;16365;51.598;7.668;2023-03-21T11:29:46;100764.22;;;17.77;49.36
29383;BME280;16365;51.598;7.668;2023-03-21T11:32:34;100761.41;;;17.77;49.08
29383;BME280;16365;51.598;7.668;2023-03-21T11:35:06;100759.47;;;17.81;48.63
29383;BME280;16365;51.598;7.668;2023-03-21T11:37:42;100756.28;;;17.83;49.43
29383;BME280;16365;51.598;7.668;2023-03-21T11:40:28;100743.06;;;17.83;49.08
29383;BME280;16365;51.598;7.668;2023-03-21T11:42:58;100751.16;;;17.88;49.28
29383;BME280;16365;51.598;7.668;2023-03-21T11:45:34;100744.38;;;17.89;48.89
29383;BME280;16365;51.598;7.668;2023-03-21T11:48:09;100731.16;;;17.90;48.79
29383;BME280;16365;51.598;7.668;2023-03-21T11:50:40;100729.22;;;17.94;49.04
29383;BME280;16365;51.598;7.668;2023-03-21T11:53:21;100720.75;;;17.90;48.98
29383;BME280;16365;51.598;7.668;2023-03-21T11:56:09;100721.16;;;17.92;49.15
29383;BME280;16365;51.598;7.668;2023-03-21T12:07:34;100713.28;;;18.02;48.70
29383;BME280;16365;51.598;7.668;2023-03-21T12:09:56;100716.53;;;18.04;48.79
29383;BME280;16365;51.598;7.668;2023-03-21T12:15:40;100697.31;;;18.06;48.71
29383;BME280;16365;51.598;7.668;2023-03-21T12:21:19;100690.19;;;18.12;49.69
29383;BME280;16365;51.598;7.668;2023-03-21T12:24:01;100685.84;;;18.18;49.22
29383;BME280;16365;51.598;7.668;2023-03-21T12:26:41;100681.53;;;18.24;48.97
29383;BME280;16365;51.598;7.668;2023-03-21T12:37:30;100673.78;;;18.44;47.94
29383;BME280;16365;51.598;7.668;2023-03-21T12:40:14;100665.75;;;18.46;48.43
29383;BME280;16365;51.598;7.668;2023-03-21T12:45:28;100669.88;;;18.52;48.11
29383;BME280;16365;51.598;7.668;2023-03-21T12:51:03;100669.59;;;18.64;47.93
29383;BME280;16365;51.598;7.668;2023-03-21T12:53:46;100664.84;;;18.68;47.53
29383;BME280;16365;51.598;7.668;2023-03-21T12:56:20;100665.72;;;18.72;47.17
29383;BME280;16365;51.598;7.668;2023-03-21T12:58:56;100666.94;;;18.75;46.98
29383;BME280;16365;51.598;7.668;2023-03-21T13:01:23;100668.59;;;18.80;46.94
29383;BME280;16365;51.598;7.668;2023-03-21T13:04:01;100665.34;;;18.78;46.98
29383;BME280;16365;51.598;7.668;2023-03-21T13:06:32;100654.16;;;18.81;47.30
29383;BME280;16365;51.598;7.668;2023-03-21T13:09:21;100656.53;;;18.79;46.57
29383;BME280;16365;51.598;7.668;2023-03-21T13:12:54;100660.59;;;18.85;46.59
29383;BME280;16365;51.598;7.668;2023-03-21T13:17:44;100654.28;;;18.92;45.79
29383;BME280;16365;51.598;7.668;2023-03-21T13:20:27;100643.03;;;18.92;45.50
29383;BME280;16365;51.598;7.668;2023-03-21T13:22:54;100637.47;;;18.95;46.22
29383;BME280;16365;51.598;7.668;2023-03-21T13:25:23;100636.25;;;18.96;45.95
29383;BME280;16365;51.598;7.668;2023-03-21T13:27:54;100625.03;;;18.96;45.33
29383;BME280;16365;51.598;7.668;2023-03-21T13:30:28;100609.38;;;18.99;45.52
29383;BME280;16365;51.598;7.668;2023-03-21T13:33:09;100615.38;;;18.97;45.39
29383;BME280;16365;51.598;7.668;2023-03-21T13:35:38;100615.78;;;18.99;45.33
29383;BME280;16365;51.598;7.668;2023-03-21T13:38:16;100629.03;;;18.95;45.76
29383;BME280;16365;51.598;7.668;2023-03-21T13:40:48;100629.84;;;18.99;45.88
29383;BME280;16365;51.598;7.668;2023-03-21T13:43:32;100623.78;;;18.94;44.93
29383;BME280;16365;51.598;7.668;2023-03-21T13:46:11;100622.16;;;18.93;44.78
29383;BME280;16365;51.598;7.668;2023-03-21T14:02:49;100589.63;;;18.88;44.54
29383;BME280;16365;51.598;7.668;2023-03-21T14:05:04;100595.63;;;18.87;44.38
29383;BME280;16365;51.598;7.668;2023-03-21T14:07:40;100592.38;;;18.85;44.04
29383;BME280;16365;51.598;7.668;2023-03-21T14:10:17;100583.56;;;18.83;44.24
29383;BME280;16365;51.598;7.668;2023-03-21T14:12:46;100567.09;;;18.85;44.62
29383;BME280;16365;51.598;7.668;2023-03-21T14:17:53;100569.06;;;18.81;43.91
29383;BME280;16365;51.598;7.668;2023-03-21T14:22:52;100564.69;;;18.83;43.92
29383;BME280;16365;51.598;7.668;2023-03-21T14:25:22;100555.03;;;18.81;44.05
29383;BME280;16365;51.598;7.668;2023-03-21T14:27:55;100547.00;;;18.79;44.12